Strona główna
METAR-TAF:

METAR-TAF

Lotnisko :

Port lotniczy Kuala Terengganu

Kuala Terengganu, Malezja

Szerokość geograficzna: 05-22-53N, Długość geograficzna: 103-06-17E, wysokość: 6 m

Aktualna obserwacja pogody

Raport powstał 1 godzina i 3 minut temu, godzina 06:00 UTC
Wiatr 6 kt od wschodnio-północny wschód, zmienny między północ i południe
Temperatura 30°C
Wilgotność 70%
Ciśnienie 1011 hPa
Widzialność 10 km lub więcej
Rozproszone chmury na wysokości 1800 ft

METAR: WMKN 280600Z 07006KT 360V170 9999 SCT018 30/24 Q1011

czas: 15:03 (07:03 UTC)

Prognoza

Raport powstał 2 godziny i 3 minut temu, godzina 05:00 UTC
Prognoza ważna od 28 godzina 06 UTC do 29 godzina 06 UTC
Wiatr 6 kt od wschodnio-północny wschód
Widzialność 10 km lub więcej
Mało chmury na wysokości 1800 ft
Stopniowe zmiany
od 28 godzina 11 UTC do 28 godzina 13 UTC
Mało chmury na wysokości 2200 ft

TAF: WMKN 280500Z 2806/2906 07006KT 9999 FEW018 BECMG 2811/2813 FEW022

Obserwacja i prognoza pogody dla ponad 4000 lotnisk (raport METAR i TAF).

Dostępne stacje oznaczono żółtymi i czerwonymi punktami na mapie.

Najedź kursorem aby zobaczyć nazwę stacji.

Kliknij aby zobaczyć obserwacje i prognozy pogody.

Aby zmienić mapę: kliknij na zielony przycisk z czarnym krzyżykiem, aby powiększyć; na zielony przycisk z myślnikiem, aby pomniejszyć; na zielone strzałki, aby przejść do map sąsiednich.


METAR-TAF: